logo
Search for airport 
image banner adimage banner adimage banner ad
image banner ad

EPWR - Wroclaw/Strachowice

Located in Wroclaw, Poland

ICAO - EPWR, IATA - WRO

Data provided by Airmate  

General information

Coordinates: N51°6'10" E16°53'9"
Elevation is 406 feet MSL.
Magnetic variation is 5.3833° East
View others Airports in Lower Silesia

Operational data

Special qualification required
Current time UTC:
Current local time:
Weather
METAR: EPWR 241030Z 31008KT 270V360 9999 BKN026 17/12 Q1027
TAF: TAF EPWR 240830Z 2409/2509 29010KT CAVOK BECMG 2410/2413 35005KT BECMG 2421/2424 05010KT BECMG 2503/2506 11005KT BKN013
View NOTAMs / SUP AIP / TFR affecting this airport [VIEW]
Communications frequencies: [VIEW]

Runways:

RWY identifierQFULength (ft)Width (ft)SurfaceLDA (ft)
11116°8212148CONC+ASPH8212
29296°8212148CONC+ASPH8212

Airport contact information

Address: Wroclaw Poland

Satellite view of EPWR